Time;durP1;ratioP1;P1;durP2;ratioP2;P2;SDS_P1;SDS_P2;PMS_P1;PMS_P2;Temp;Humidity;BMP_temperature;BMP_pressure;BME280_temperature;BME280_humidity;BME280_pressure;Samples;Min_cycle;Max_cycle;Signal;HPM_P1;HPM_P2
2022/09/27 00:00:24;;;;;;;0.10;0.10;;;11.60;99.90;;;;;;4994175;28;20220;-75
2022/09/27 00:02:51;;;;;;;0.10;0.10;;;11.60;99.90;;;;;;4993470;28;20228;-75
2022/09/27 00:05:19;;;;;;;0.10;0.10;;;11.50;99.90;;;;;;4998086;28;20196;-75
2022/09/27 00:07:47;;;;;;;0.10;0.10;;;11.50;99.90;;;;;;4993805;28;20201;-75
2022/09/27 00:10:15;;;;;;;0.10;0.10;;;11.50;99.90;;;;;;4994312;28;20262;-76
2022/09/27 00:12:43;;;;;;;0.10;0.10;;;11.50;99.90;;;;;;4994321;28;20258;-76
2022/09/27 00:15:12;;;;;;;0.10;0.10;;;11.50;99.90;;;;;;4996056;28;20231;-76
2022/09/27 00:17:41;;;;;;;0.00;0.00;;;11.60;99.90;;;;;;5002081;28;20231;-75
2022/09/27 00:20:09;;;;;;;0.10;0.10;;;11.60;99.90;;;;;;4993454;28;20231;-75
2022/09/27 00:22:37;;;;;;;0.10;0.10;;;11.60;99.90;;;;;;4983871;28;20216;-75
2022/09/27 00:25:06;;;;;;;0.10;0.10;;;11.60;99.90;;;;;;5001999;28;20208;-75
2022/09/27 00:48:37;;;;;;;0.10;0.10;;;11.40;99.90;;;;;;4950537;28;20721;-76
2022/09/27 00:51:08;;;;;;;0.10;0.10;;;11.40;99.90;;;;;;4952631;29;20198;-76
2022/09/27 00:53:45;;;;;;;0.10;0.10;;;11.30;99.90;;;;;;4917275;29;20217;-75
2022/09/27 00:56:17;;;;;;;0.00;0.00;;;11.30;99.90;;;;;;4917574;29;20202;-76
2022/09/27 00:58:50;;;;;;;0.10;0.10;;;11.30;99.90;;;;;;4946807;28;20234;-76
2022/09/27 01:01:18;;;;;;;0.10;0.10;;;11.20;99.90;;;;;;4940016;29;20197;-75
2022/09/27 01:03:52;;;;;;;0.10;0.10;;;11.20;99.90;;;;;;4962226;29;20228;-76
2022/09/27 01:06:21;;;;;;;0.10;0.10;;;11.20;99.90;;;;;;4956283;28;20201;-75
2022/09/27 01:08:49;;;;;;;0.00;0.00;;;11.20;99.90;;;;;;4995412;28;20238;-76
2022/09/27 01:11:28;;;;;;;0.10;0.10;;;11.20;99.90;;;;;;4991009;28;20223;-76
2022/09/27 01:14:11;;;;;;;0.00;0.00;;;11.10;99.90;;;;;;5018449;28;20636;-76
2022/09/27 01:16:47;;;;;;;0.10;0.10;;;11.10;99.90;;;;;;5004313;28;20212;-76
2022/09/27 01:19:36;;;;;;;0.05;0.05;;;11.10;99.90;;;;;;5006084;28;20239;-77
2022/09/27 01:22:09;;;;;;;0.00;0.00;;;11.10;99.90;;;;;;4995849;28;20204;-77
2022/09/27 01:24:57;;;;;;;0.10;0.10;;;11.10;99.90;;;;;;5008211;28;20208;-76
2022/09/27 01:27:59;;;;;;;0.10;0.10;;;11.10;99.90;;;;;;4996318;28;20645;-76
2022/09/27 01:30:38;;;;;;;0.00;0.00;;;11.10;99.90;;;;;;4991235;28;20715;-76
2022/09/27 01:33:14;;;;;;;0.00;0.00;;;11.10;99.90;;;;;;4992554;28;20190;-75
2022/09/27 01:36:00;;;;;;;0.10;0.10;;;11.00;99.90;;;;;;5007711;28;20196;-75
2022/09/27 01:38:39;;;;;;;0.10;0.10;;;11.00;99.90;;;;;;4968044;28;20287;-75
2022/09/27 01:41:15;;;;;;;0.10;0.10;;;11.00;99.90;;;;;;5001284;28;20200;-76
2022/09/27 01:44:06;;;;;;;0.10;0.10;;;11.00;99.90;;;;;;4999415;28;20278;-76
2022/09/27 01:46:43;;;;;;;0.10;0.10;;;10.90;99.90;;;;;;4996457;28;20200;-76
2022/09/27 01:49:27;;;;;;;0.10;0.10;;;10.90;99.90;;;;;;5007133;28;20251;-76
2022/09/27 01:51:59;;;;;;;0.10;0.10;;;10.90;99.90;;;;;;4996882;28;20196;-76
2022/09/27 01:54:32;;;;;;;0.10;0.10;;;10.90;99.90;;;;;;4997526;28;20227;-76
2022/09/27 01:57:23;;;;;;;0.10;0.10;;;10.80;99.90;;;;;;4981164;28;20215;-75
2022/09/27 01:59:56;;;;;;;0.10;0.10;;;10.80;99.90;;;;;;4999739;28;20801;-76
2022/09/27 02:02:49;;;;;;;0.10;0.10;;;10.90;99.90;;;;;;4996101;28;20220;-76
2022/09/27 02:05:37;;;;;;;0.10;0.10;;;10.80;99.90;;;;;;4991952;28;20254;-75
2022/09/27 02:08:22;;;;;;;0.10;0.10;;;10.70;99.90;;;;;;5004589;28;20204;-75
2022/09/27 02:10:56;;;;;;;0.10;0.10;;;10.70;99.90;;;;;;5011693;28;20204;-75
2022/09/27 02:13:37;;;;;;;0.10;0.10;;;10.70;99.90;;;;;;4980379;23;20203;31
2022/09/27 02:16:32;;;;;;;0.10;0.10;;;10.70;99.90;;;;;;4960154;29;20202;-76
2022/09/27 02:19:10;;;;;;;0.10;0.10;;;10.70;99.90;;;;;;4961339;29;20201;-76
2022/09/27 02:21:44;;;;;;;0.10;0.10;;;10.60;99.90;;;;;;4943297;29;20233;-75
2022/09/27 02:24:16;;;;;;;0.10;0.10;;;10.60;99.90;;;;;;4940634;29;20233;-75
2022/09/27 02:26:47;;;;;;;0.10;0.10;;;10.60;99.90;;;;;;4940073;29;20706;-75
2022/09/27 02:29:21;;;;;;;0.10;0.10;;;10.60;99.90;;;;;;4947197;29;20205;-75
2022/09/27 02:31:52;;;;;;;0.10;0.10;;;10.70;99.90;;;;;;4948768;29;20315;-75
2022/09/27 02:34:24;;;;;;;0.10;0.10;;;10.70;99.90;;;;;;4950000;29;20224;-75
2022/09/27 02:36:53;;;;;;;0.10;0.10;;;10.70;99.90;;;;;;4963622;29;20201;-75
2022/09/27 02:39:21;;;;;;;0.00;0.00;;;10.70;99.90;;;;;;4961570;29;20229;-76
2022/09/27 02:41:58;;;;;;;0.10;0.10;;;10.70;99.90;;;;;;4943907;29;20229;-75
2022/09/27 02:44:28;;;;;;;0.10;0.10;;;10.60;99.90;;;;;;4938612;29;20668;-74
2022/09/27 02:47:11;;;;;;;0.10;0.10;;;10.70;99.90;;;;;;4923804;29;20568;-75
2022/09/27 02:49:54;;;;;;;0.10;0.10;;;10.60;99.90;;;;;;4929430;29;20210;-76
2022/09/27 02:52:49;;;;;;;0.10;0.10;;;10.70;99.90;;;;;;4956870;29;20241;-75
2022/09/27 02:55:23;;;;;;;0.10;0.10;;;10.70;99.90;;;;;;4929452;29;20237;-76
2022/09/27 02:58:23;;;;;;;0.10;0.10;;;10.70;99.90;;;;;;4954654;29;20229;-75
2022/09/27 03:01:18;;;;;;;0.10;0.10;;;10.60;99.90;;;;;;4915903;29;20653;-75
2022/09/27 03:04:10;;;;;;;0.10;0.10;;;10.60;99.90;;;;;;4943461;29;20244;-75
2022/09/27 03:06:42;;;;;;;0.10;0.10;;;10.60;99.90;;;;;;4959969;29;20276;-75
2022/09/27 03:09:18;;;;;;;0.10;0.10;;;10.60;99.90;;;;;;4949849;29;20209;-76
2022/09/27 03:11:46;;;;;;;0.10;0.10;;;10.60;99.90;;;;;;4948571;29;20300;-75
2022/09/27 03:14:14;;;;;;;0.10;0.10;;;10.60;99.90;;;;;;4948388;29;20229;-75
2022/09/27 03:16:52;;;;;;;0.10;0.10;;;10.60;99.90;;;;;;4945524;29;20674;-75
2022/09/27 03:19:39;;;;;;;0.10;0.10;;;10.60;99.90;;;;;;4947907;29;20214;-75
2022/09/27 03:22:27;;;;;;;0.10;0.10;;;10.60;99.90;;;;;;4946097;29;20285;-76
2022/09/27 03:24:56;;;;;;;0.10;0.10;;;10.60;99.90;;;;;;4946485;29;20309;-76
2022/09/27 03:27:24;;;;;;;0.10;0.10;;;10.60;99.90;;;;;;4943558;29;20220;-75
2022/09/27 03:29:52;;;;;;;0.10;0.10;;;10.60;99.90;;;;;;4942683;29;20209;-76
2022/09/27 03:32:20;;;;;;;0.10;0.10;;;10.60;99.90;;;;;;4943759;29;20213;-76
2022/09/27 03:35:08;;;;;;;0.10;0.10;;;10.60;99.90;;;;;;4959208;29;20249;-75
2022/09/27 03:37:37;;;;;;;0.10;0.10;;;10.60;99.90;;;;;;4955899;28;20206;-75
2022/09/27 03:40:07;;;;;;;0.03;0.03;;;10.60;99.90;;;;;;4940988;29;20244;-76
2022/09/27 03:42:34;;;;;;;0.05;0.05;;;10.60;99.90;;;;;;4972829;29;20205;-75
2022/09/27 03:45:03;;;;;;;0.10;0.10;;;10.60;99.90;;;;;;4961388;29;20234;-75
2022/09/27 03:47:30;;;;;;;0.10;0.10;;;10.60;99.90;;;;;;4957677;29;20211;-74
2022/09/27 03:49:58;;;;;;;0.10;0.10;;;10.60;99.90;;;;;;4958627;29;20194;-75
2022/09/27 03:52:26;;;;;;;0.10;0.10;;;10.70;99.90;;;;;;4965753;29;20204;-75
2022/09/27 03:54:55;;;;;;;0.00;0.00;;;10.70;99.90;;;;;;4942088;29;20224;-76
2022/09/27 03:57:29;;;;;;;0.00;0.00;;;10.70;99.90;;;;;;4941087;29;20277;-76
2022/09/27 03:59:58;;;;;;;0.00;0.00;;;10.70;99.90;;;;;;4943832;29;20213;-76
2022/09/27 04:02:39;;;;;;;0.10;0.10;;;10.70;99.90;;;;;;4967252;29;20233;-76
2022/09/27 04:05:46;;;;;;;0.10;0.10;;;10.60;99.90;;;;;;4925681;29;20227;-76
2022/09/27 04:08:19;;;;;;;0.10;0.10;;;10.70;99.90;;;;;;4917504;29;20210;-76
2022/09/27 04:10:49;;;;;;;0.10;0.10;;;10.70;99.90;;;;;;4951335;29;20213;-76
2022/09/27 04:13:17;;;;;;;0.00;0.00;;;10.70;99.90;;;;;;4968088;29;20198;-75
2022/09/27 04:15:53;;;;;;;0.10;0.10;;;10.70;99.90;;;;;;4955812;29;20692;-76
2022/09/27 04:19:00;;;;;;;0.10;0.10;;;10.70;99.90;;;;;;4950281;29;20641;-76
2022/09/27 04:21:46;;;;;;;0.10;0.10;;;10.70;99.90;;;;;;4949511;29;20225;-76
2022/09/27 04:24:17;;;;;;;0.10;0.10;;;10.60;99.90;;;;;;4943972;29;20218;-76
2022/09/27 04:27:06;;;;;;;0.08;0.08;;;10.60;99.90;;;;;;4969417;28;20240;-76
2022/09/27 04:29:41;;;;;;;0.10;0.10;;;10.60;99.90;;;;;;4949362;29;20208;-75
2022/09/27 04:32:25;;;;;;;0.00;0.00;;;10.60;99.90;;;;;;4953399;29;20205;-76
2022/09/27 04:38:10;;;;;;;0.10;0.10;;;10.70;99.90;;;;;;4967570;29;20205;-76
2022/09/27 04:40:38;;;;;;;0.10;0.10;;;10.70;99.90;;;;;;4968592;28;20190;-76
2022/09/27 04:43:08;;;;;;;0.10;0.10;;;10.70;99.90;;;;;;4952188;29;20428;-76
2022/09/27 04:45:36;;;;;;;0.10;0.10;;;10.70;99.90;;;;;;4968729;29;20221;-76
2022/09/27 04:48:04;;;;;;;0.10;0.10;;;10.70;99.90;;;;;;4944998;29;20217;-76
2022/09/27 04:50:33;;;;;;;0.10;0.10;;;10.60;99.90;;;;;;4952302;29;20213;-75
2022/09/27 04:53:04;;;;;;;0.10;0.10;;;10.60;99.90;;;;;;4936646;29;20218;-76
2022/09/27 04:55:32;;;;;;;0.10;0.10;;;10.60;99.90;;;;;;4953217;29;20249;-75
2022/09/27 04:58:00;;;;;;;0.10;0.10;;;10.60;99.90;;;;;;4970244;29;20212;-75
2022/09/27 05:00:31;;;;;;;0.10;0.10;;;10.60;99.90;;;;;;4955092;28;20213;-76
2022/09/27 05:03:16;;;;;;;0.10;0.10;;;10.60;99.90;;;;;;4964652;28;20216;-76
2022/09/27 05:05:55;;;;;;;0.00;0.00;;;10.60;99.90;;;;;;4952896;28;20287;-74
2022/09/27 05:08:23;;;;;;;0.10;0.10;;;10.60;99.90;;;;;;4955458;29;20221;-76
2022/09/27 05:11:13;;;;;;;0.00;0.00;;;10.60;99.90;;;;;;4949995;28;20209;-76
2022/09/27 05:13:57;;;;;;;0.10;0.10;;;10.60;99.90;;;;;;4977836;28;20248;-75
2022/09/27 05:16:27;;;;;;;0.10;0.10;;;10.50;99.90;;;;;;4954303;29;20202;-76
2022/09/27 05:19:29;;;;;;;0.10;0.10;;;10.50;99.90;;;;;;4960448;29;20213;-76
2022/09/27 05:22:11;;;;;;;0.10;0.10;;;10.60;99.90;;;;;;4959928;28;20707;-75
2022/09/27 05:24:39;;;;;;;0.10;0.10;;;10.50;99.90;;;;;;4950977;29;20667;-76
2022/09/27 05:27:09;;;;;;;0.10;0.10;;;10.50;99.90;;;;;;4974808;28;20201;-75
2022/09/27 05:29:37;;;;;;;0.10;0.10;;;10.50;99.90;;;;;;4967061;28;20213;-76
2022/09/27 05:32:26;;;;;;;0.10;0.10;;;10.50;99.90;;;;;;4977392;28;20237;-76
2022/09/27 05:35:14;;;;;;;0.10;0.10;;;10.50;99.90;;;;;;4966516;29;20256;-76
2022/09/27 05:37:43;;;;;;;0.10;0.10;;;10.60;99.90;;;;;;4965671;28;20228;-76
2022/09/27 05:40:11;;;;;;;0.10;0.10;;;10.60;99.90;;;;;;4927013;29;20297;-77
2022/09/27 05:42:59;;;;;;;0.05;0.05;;;10.50;99.90;;;;;;4969281;28;20209;-77
2022/09/27 05:45:27;;;;;;;0.10;0.10;;;10.50;99.90;;;;;;4960835;28;20233;-76
2022/09/27 05:48:04;;;;;;;0.10;0.10;;;10.50;99.90;;;;;;4954624;28;20616;-77
2022/09/27 05:50:36;;;;;;;0.10;0.10;;;10.50;99.90;;;;;;4946337;29;20204;-77
2022/09/27 05:53:04;;;;;;;0.10;0.10;;;10.50;99.90;;;;;;4953804;29;20213;-76
2022/09/27 05:55:32;;;;;;;0.10;0.10;;;10.50;99.90;;;;;;4955666;28;20319;-76
2022/09/27 05:58:02;;;;;;;0.10;0.10;;;10.50;99.90;;;;;;4961255;28;20580;-76
2022/09/27 06:00:44;;;;;;;0.10;0.10;;;10.50;99.90;;;;;;4937669;28;20205;-75
2022/09/27 06:03:36;;;;;;;0.10;0.10;;;10.40;99.90;;;;;;4963654;28;20256;-76
2022/09/27 06:06:09;;;;;;;0.10;0.10;;;10.40;99.90;;;;;;4958353;28;20231;-76
2022/09/27 06:08:46;;;;;;;0.10;0.10;;;10.40;99.90;;;;;;4958224;28;20256;-76
2022/09/27 06:11:17;;;;;;;0.10;0.10;;;10.40;99.90;;;;;;4950572;29;20198;-76
2022/09/27 06:13:46;;;;;;;0.10;0.10;;;10.40;99.90;;;;;;4956541;28;20260;-76
2022/09/27 06:16:15;;;;;;;0.10;0.10;;;10.50;99.90;;;;;;4975176;28;20267;-76
2022/09/27 06:18:46;;;;;;;0.10;0.10;;;10.50;99.90;;;;;;4937412;28;20201;-76
2022/09/27 06:21:15;;;;;;;0.00;0.00;;;10.50;99.90;;;;;;4942684;28;20201;-76
2022/09/27 06:23:50;;;;;;;0.10;0.10;;;10.50;99.90;;;;;;4947535;28;20239;-76
2022/09/27 06:26:26;;;;;;;0.10;0.10;;;10.40;99.90;;;;;;4947014;29;20283;-76
2022/09/27 06:29:15;;;;;;;0.10;0.10;;;10.40;99.90;;;;;;4976627;28;20204;-77
2022/09/27 06:31:50;;;;;;;0.10;0.10;;;10.40;99.90;;;;;;4945384;28;20255;-76
2022/09/27 06:34:34;;;;;;;0.10;0.10;;;10.50;99.90;;;;;;4962901;29;20233;-76
2022/09/27 06:37:03;;;;;;;0.10;0.10;;;10.60;99.90;;;;;;4967349;28;20292;-75
2022/09/27 06:39:32;;;;;;;0.00;0.00;;;10.50;99.90;;;;;;4945320;29;20557;-76
2022/09/27 06:42:18;;;;;;;0.10;0.10;;;10.50;99.90;;;;;;4952268;28;20228;-77
2022/09/27 06:45:10;;;;;;;0.10;0.10;;;10.50;99.90;;;;;;4960017;28;20228;-76
2022/09/27 06:48:15;;;;;;;0.10;0.10;;;10.50;99.90;;;;;;4919767;29;20215;-76
2022/09/27 06:50:49;;;;;;;0.00;0.00;;;10.60;99.90;;;;;;4924169;29;20356;-76
2022/09/27 06:53:22;;;;;;;0.10;0.10;;;10.60;99.90;;;;;;4968092;28;20212;-76
2022/09/27 06:55:51;;;;;;;0.10;0.10;;;10.70;99.90;;;;;;4956134;29;20230;-76
2022/09/27 07:01:27;;;;;;;0.10;0.10;;;10.80;99.90;;;;;;4956996;28;20225;-76
2022/09/27 07:04:15;;;;;;;0.05;0.05;;;10.90;99.90;;;;;;4977074;28;20267;-77
2022/09/27 07:07:03;;;;;;;0.10;0.10;;;10.90;99.90;;;;;;4954474;28;20231;-78
2022/09/27 07:09:35;;;;;;;0.10;0.10;;;11.00;99.90;;;;;;4956869;29;20309;-76
2022/09/27 07:12:02;;;;;;;0.10;0.10;;;10.90;99.90;;;;;;4965832;28;20543;-76
2022/09/27 07:14:32;;;;;;;0.10;0.10;;;10.90;99.90;;;;;;4952452;29;20265;-77
2022/09/27 07:17:01;;;;;;;0.10;0.10;;;10.90;99.90;;;;;;4976788;28;20261;-76
2022/09/27 07:19:35;;;;;;;0.00;0.00;;;11.00;99.90;;;;;;4961377;28;20231;-77
2022/09/27 07:22:04;;;;;;;0.10;0.10;;;11.00;99.90;;;;;;4947619;29;20207;-76
2022/09/27 07:24:32;;;;;;;0.10;0.10;;;11.00;99.90;;;;;;4960742;29;20226;-77
2022/09/27 07:27:01;;;;;;;0.00;0.00;;;11.00;99.90;;;;;;4948839;28;20252;-76
2022/09/27 07:29:28;;;;;;;0.10;0.10;;;11.10;99.90;;;;;;4950513;29;20216;-76
2022/09/27 07:31:56;;;;;;;0.10;0.10;;;11.00;99.90;;;;;;4949761;28;20545;-77
2022/09/27 07:34:24;;;;;;;0.10;0.10;;;11.00;99.90;;;;;;4961540;28;20724;-77
2022/09/27 07:36:53;;;;;;;0.10;0.10;;;11.00;99.90;;;;;;4966823;28;20299;-77
2022/09/27 07:39:23;;;;;;;0.10;0.10;;;11.10;99.90;;;;;;4950234;29;20213;-76
2022/09/27 07:41:51;;;;;;;0.10;0.10;;;11.20;99.90;;;;;;4956560;28;20212;-77
2022/09/27 07:44:19;;;;;;;0.10;0.10;;;11.20;99.90;;;;;;4975661;28;20228;-77
2022/09/27 07:47:09;;;;;;;0.10;0.10;;;11.10;99.90;;;;;;4984469;28;20340;-77
2022/09/27 07:50:10;;;;;;;0.10;0.10;;;11.10;99.90;;;;;;4953623;29;20244;-76
2022/09/27 07:52:51;;;;;;;0.00;0.00;;;11.00;99.90;;;;;;4955646;28;20215;-77
2022/09/27 07:55:40;;;;;;;0.10;0.10;;;11.10;99.90;;;;;;4971190;28;20220;-76
2022/09/27 07:58:12;;;;;;;0.10;0.10;;;11.00;99.90;;;;;;4952895;29;20201;-77
2022/09/27 08:00:41;;;;;;;0.10;0.10;;;11.10;99.90;;;;;;4960860;29;20201;-76
2022/09/27 08:03:14;;;;;;;0.10;0.10;;;11.10;99.90;;;;;;4965484;28;20216;-77
2022/09/27 08:05:42;;;;;;;0.10;0.10;;;11.00;99.90;;;;;;4968888;28;20277;-77
2022/09/27 08:08:10;;;;;;;0.10;0.10;;;11.10;99.90;;;;;;4967521;28;20201;-76
2022/09/27 08:10:43;;;;;;;0.10;0.10;;;11.10;99.90;;;;;;4948647;29;20340;-77
2022/09/27 08:13:11;;;;;;;0.10;0.10;;;11.10;99.90;;;;;;4951218;29;20222;-76
2022/09/27 08:15:40;;;;;;;0.10;0.10;;;11.20;99.90;;;;;;4997687;23;20663;-77
2022/09/27 08:18:09;;;;;;;0.10;0.10;;;11.20;99.90;;;;;;4973711;28;20225;-77
2022/09/27 08:20:59;;;;;;;0.05;0.05;;;11.30;99.90;;;;;;4989146;28;20296;-77
2022/09/27 08:23:36;;;;;;;0.10;0.10;;;11.30;99.90;;;;;;4995557;28;20248;-77
2022/09/27 08:26:15;;;;;;;0.10;0.10;;;11.20;99.90;;;;;;4969052;28;20209;-76
2022/09/27 08:28:56;;;;;;;0.00;0.00;;;11.30;99.90;;;;;;4977726;28;20209;-77
2022/09/27 08:31:26;;;;;;;0.10;0.10;;;11.20;99.90;;;;;;4974309;28;20209;-77
2022/09/27 08:33:56;;;;;;;0.10;0.10;;;11.30;99.90;;;;;;4989638;28;20211;-77
2022/09/27 08:36:24;;;;;;;0.10;0.10;;;11.30;99.90;;;;;;4977271;28;20200;-77
2022/09/27 08:38:56;;;;;;;0.10;0.10;;;11.30;99.90;;;;;;4994157;28;20208;-77
2022/09/27 08:41:35;;;;;;;0.10;0.10;;;11.20;99.90;;;;;;4980334;28;20209;-77
2022/09/27 08:44:11;;;;;;;0.10;0.10;;;11.20;99.90;;;;;;4983228;28;20229;-77
2022/09/27 08:46:57;;;;;;;0.10;0.10;;;11.30;99.90;;;;;;4958367;28;20562;-77
2022/09/27 08:49:33;;;;;;;0.10;0.10;;;11.20;99.90;;;;;;4968076;28;20584;-77
2022/09/27 08:52:04;;;;;;;0.10;0.10;;;11.10;99.90;;;;;;4973129;28;20677;-77
2022/09/27 08:54:32;;;;;;;0.10;0.10;;;11.10;99.90;;;;;;4990548;28;20624;-78
2022/09/27 08:57:06;;;;;;;0.00;0.00;;;11.00;99.90;;;;;;4987322;28;20673;-77
2022/09/27 08:59:39;;;;;;;0.10;0.10;;;11.00;99.90;;;;;;4980965;28;20205;-77
2022/09/27 09:02:16;;;;;;;0.00;0.00;;;10.80;99.90;;;;;;4956238;28;20272;-77
2022/09/27 09:04:48;;;;;;;0.10;0.10;;;10.70;99.90;;;;;;4975412;28;20237;-77
2022/09/27 09:07:28;;;;;;;0.10;0.10;;;10.80;99.90;;;;;;4972663;28;20263;-77
2022/09/27 09:10:06;;;;;;;0.10;0.10;;;10.80;99.90;;;;;;4945378;28;20220;-77
2022/09/27 09:12:49;;;;;;;0.10;0.10;;;10.80;99.90;;;;;;4972745;28;20277;-77
2022/09/27 09:15:53;;;;;;;0.05;0.05;;;10.90;99.90;;;;;;4969109;28;20637;-77
2022/09/27 09:18:40;;;;;;;0.00;0.00;;;11.00;99.90;;;;;;4972679;28;20212;-77
2022/09/27 09:21:26;;;;;;;0.10;0.10;;;11.10;99.90;;;;;;4969053;28;20197;-77
2022/09/27 09:24:17;;;;;;;0.10;0.10;;;11.00;99.90;;;;;;4977976;28;20683;-77
2022/09/27 09:26:54;;;;;;;0.00;0.00;;;11.00;99.90;;;;;;4975099;28;20251;-77
2022/09/27 09:29:40;;;;;;;0.10;0.10;;;11.00;99.90;;;;;;4970356;28;20197;-77
2022/09/27 09:32:21;;;;;;;0.10;0.10;;;11.00;99.90;;;;;;4973816;28;20570;-77
2022/09/27 09:34:54;;;;;;;0.10;0.10;;;11.00;99.90;;;;;;4976448;28;20222;-77
2022/09/27 09:37:32;;;;;;;0.10;0.10;;;11.00;99.90;;;;;;4962618;28;20201;-77
2022/09/27 09:40:05;;;;;;;0.10;0.10;;;11.10;99.90;;;;;;4975783;28;20569;-77
2022/09/27 09:42:43;;;;;;;0.10;0.10;;;11.00;99.90;;;;;;4976078;28;20204;-77
2022/09/27 09:45:18;;;;;;;0.10;0.10;;;11.00;99.90;;;;;;4971378;28;20231;-78
2022/09/27 09:47:54;;;;;;;0.10;0.10;;;10.90;99.90;;;;;;4977242;28;20231;-77
2022/09/27 09:50:26;;;;;;;0.10;0.10;;;10.80;99.90;;;;;;4973257;28;20577;-77
2022/09/27 09:53:03;;;;;;;0.10;0.10;;;10.80;99.90;;;;;;4978423;28;20208;-77
2022/09/27 09:55:35;;;;;;;0.10;0.10;;;10.70;99.90;;;;;;4988360;28;20687;-77
2022/09/27 09:58:12;;;;;;;0.10;0.10;;;10.70;99.90;;;;;;4980326;28;20205;-77
2022/09/27 10:00:53;;;;;;;0.10;0.10;;;10.80;99.90;;;;;;4973501;28;20211;-77
2022/09/27 10:03:23;;;;;;;0.10;0.10;;;10.80;99.90;;;;;;4975027;28;20197;-77
2022/09/27 10:05:51;;;;;;;0.10;0.10;;;10.80;99.90;;;;;;4952197;28;20222;-77
2022/09/27 10:08:21;;;;;;;0.10;0.10;;;10.80;99.90;;;;;;4972298;28;20229;-76
2022/09/27 10:10:57;;;;;;;0.10;0.10;;;10.80;99.90;;;;;;4970179;28;20205;-77
2022/09/27 10:13:35;;;;;;;0.10;0.10;;;10.90;99.90;;;;;;4968674;28;20279;-77
2022/09/27 10:16:08;;;;;;;0.10;0.10;;;10.90;99.90;;;;;;4971498;28;20233;-76
2022/09/27 10:18:38;;;;;;;0.10;0.10;;;10.70;99.90;;;;;;4983027;28;20212;-76
2022/09/27 10:21:11;;;;;;;0.00;0.00;;;10.60;99.90;;;;;;4958267;28;20208;-75
2022/09/27 10:24:03;;;;;;;0.10;0.10;;;10.50;99.90;;;;;;4967691;28;20197;-76
2022/09/27 10:26:50;;;;;;;0.00;0.00;;;10.50;99.90;;;;;;4980667;28;20232;-75
2022/09/27 10:29:30;;;;;;;0.10;0.10;;;10.40;99.90;;;;;;4972820;28;20616;-75
2022/09/27 10:32:22;;;;;;;0.10;0.10;;;10.30;99.90;;;;;;4965415;28;20212;-76
2022/09/27 10:34:53;;;;;;;0.08;0.08;;;10.40;99.90;;;;;;4966484;28;20221;-75
2022/09/27 10:37:22;;;;;;;0.10;0.10;;;10.30;99.90;;;;;;4975983;28;20228;-75
2022/09/27 10:40:25;;;;;;;0.00;0.00;;;10.40;99.90;;;;;;4973907;28;20275;-75
2022/09/27 10:42:54;;;;;;;0.00;0.00;;;10.40;99.90;;;;;;4966184;28;20561;-75
2022/09/27 10:45:29;;;;;;;0.10;0.10;;;10.40;99.90;;;;;;4951347;28;20311;-75
2022/09/27 10:48:02;;;;;;;0.10;0.10;;;10.50;99.90;;;;;;4975397;28;20248;-75
2022/09/27 10:50:40;;;;;;;0.10;0.10;;;10.50;99.90;;;;;;4975023;28;20246;-76
2022/09/27 10:53:37;;;;;;;0.10;0.10;;;10.60;99.90;;;;;;4970086;28;20194;-75
2022/09/27 10:56:22;;;;;;;0.10;0.10;;;10.60;99.90;;;;;;4976349;28;20683;-75
2022/09/27 10:58:51;;;;;;;0.10;0.10;;;10.60;99.90;;;;;;4975997;28;20200;-76
2022/09/27 11:01:20;;;;;;;0.10;0.10;;;10.60;99.90;;;;;;4964097;28;20205;-76
2022/09/27 11:04:23;;;;;;;0.10;0.10;;;10.70;99.90;;;;;;4973078;28;20229;-76
2022/09/27 11:06:51;;;;;;;0.10;0.10;;;10.70;99.90;;;;;;4975695;28;20240;-76
2022/09/27 11:09:25;;;;;;;0.10;0.10;;;10.80;99.90;;;;;;4980481;28;20228;-76
2022/09/27 11:12:09;;;;;;;0.10;0.10;;;10.80;99.90;;;;;;4977705;28;20729;-76
2022/09/27 11:14:38;;;;;;;0.10;0.10;;;10.90;99.90;;;;;;4967383;28;20232;-77
2022/09/27 11:17:12;;;;;;;0.10;0.10;;;10.90;99.90;;;;;;4965494;28;20702;-75
2022/09/27 11:20:06;;;;;;;0.10;0.10;;;10.90;99.90;;;;;;4971948;28;20197;-75
2022/09/27 11:22:53;;;;;;;0.10;0.10;;;11.10;99.90;;;;;;4975535;28;20217;-76
2022/09/27 11:25:33;;;;;;;0.10;0.10;;;11.10;99.90;;;;;;4974902;28;20237;-75
2022/09/27 11:28:09;;;;;;;0.10;0.10;;;11.20;99.90;;;;;;4978176;28;20220;-75
2022/09/27 11:30:47;;;;;;;0.10;0.10;;;11.10;99.90;;;;;;4987353;28;20683;-76
2022/09/27 11:34:01;;;;;;;0.10;0.10;;;11.00;99.90;;;;;;4957460;28;20201;-76
2022/09/27 11:36:47;;;;;;;0.10;0.10;;;11.20;99.90;;;;;;4974046;28;20247;-76
2022/09/27 11:39:28;;;;;;;0.10;0.10;;;11.20;99.90;;;;;;4971840;28;20200;-75
2022/09/27 11:42:13;;;;;;;0.10;0.10;;;11.20;99.90;;;;;;4972080;28;20651;-76
2022/09/27 11:44:57;;;;;;;0.10;0.10;;;11.20;99.90;;;;;;4962354;28;20701;-75
2022/09/27 11:47:50;;;;;;;0.10;0.10;;;11.30;99.90;;;;;;4971263;28;20643;-75
2022/09/27 11:50:32;;;;;;;0.10;0.10;;;11.20;99.90;;;;;;4984507;28;20207;-75
2022/09/27 11:53:17;;;;;;;0.00;0.00;;;11.50;99.90;;;;;;4969145;28;20201;-75
2022/09/27 11:55:54;;;;;;;0.03;0.03;;;12.00;99.90;;;;;;4949829;28;20319;-76
2022/09/27 11:58:30;;;;;;;0.10;0.10;;;12.20;99.90;;;;;;4978850;28;20204;-76
2022/09/27 12:01:18;;;;;;;0.10;0.10;;;12.10;99.90;;;;;;4955202;28;20240;-76
2022/09/27 12:04:18;;;;;;;0.10;0.10;;;12.10;99.90;;;;;;4964438;28;20256;-75
2022/09/27 12:06:54;;;;;;;0.10;0.10;;;12.00;99.90;;;;;;4969930;28;20197;-75
2022/09/27 12:09:29;;;;;;;0.10;0.10;;;11.90;99.90;;;;;;4955204;28;20643;-76
2022/09/27 12:12:02;;;;;;;0.10;0.10;;;11.80;99.90;;;;;;4977041;28;20294;-76
2022/09/27 12:14:37;;;;;;;0.08;0.08;;;11.60;99.90;;;;;;4958410;28;20231;-76
2022/09/27 12:17:11;;;;;;;0.10;0.10;;;11.30;99.90;;;;;;4965958;28;20227;-75
2022/09/27 12:19:50;;;;;;;0.10;0.10;;;11.20;99.90;;;;;;4983231;28;20297;-76
2022/09/27 12:22:30;;;;;;;0.03;0.03;;;11.20;99.90;;;;;;4962913;28;20631;-76
2022/09/27 12:25:28;;;;;;;0.10;0.10;;;11.00;99.90;;;;;;4973372;28;20230;-75
2022/09/27 12:28:08;;;;;;;0.00;0.00;;;10.90;99.90;;;;;;4960005;28;20228;-75
2022/09/27 12:30:41;;;;;;;0.10;0.10;;;10.80;99.90;;;;;;4992045;28;20215;-75
2022/09/27 12:33:18;;;;;;;0.00;0.00;;;10.60;99.90;;;;;;4972721;28;20209;-75
2022/09/27 12:35:51;;;;;;;0.10;0.10;;;10.60;99.90;;;;;;4978806;28;20298;-75
2022/09/27 12:38:23;;;;;;;0.10;0.10;;;10.60;99.90;;;;;;4972500;28;20256;-75
2022/09/27 12:40:57;;;;;;;0.10;0.10;;;10.60;99.90;;;;;;4975141;28;20219;-75
2022/09/27 12:43:36;;;;;;;0.10;0.10;;;10.50;99.90;;;;;;4956279;28;20296;-75
2022/09/27 12:46:24;;;;;;;0.10;0.10;;;10.50;99.90;;;;;;4971687;28;20220;-75
2022/09/27 12:49:04;;;;;;;0.10;0.10;;;10.50;99.90;;;;;;4990247;28;20765;-76
2022/09/27 12:51:37;;;;;;;0.10;0.10;;;10.60;99.90;;;;;;4981462;28;20562;-76
2022/09/27 12:54:26;;;;;;;0.00;0.00;;;10.70;99.90;;;;;;4976778;28;20719;-76
2022/09/27 12:57:03;;;;;;;0.10;0.10;;;10.80;99.90;;;;;;4974408;28;20630;-75
2022/09/27 12:59:54;;;;;;;0.00;0.00;;;11.00;99.90;;;;;;4959908;28;20303;-75
2022/09/27 13:02:39;;;;;;;0.00;0.00;;;11.40;99.90;;;;;;4971900;28;20623;-75
2022/09/27 13:05:45;;;;;;;0.10;0.10;;;11.70;99.90;;;;;;4956502;28;20244;-76
2022/09/27 13:08:46;;;;;;;0.10;0.10;;;11.70;99.90;;;;;;4956484;28;20209;-75
2022/09/27 13:11:28;;;;;;;0.10;0.10;;;11.60;99.90;;;;;;4971228;28;20219;-75
2022/09/27 13:14:00;;;;;;;0.00;0.00;;;11.50;99.90;;;;;;4973855;28;20342;-75
2022/09/27 13:16:29;;;;;;;0.10;0.10;;;11.40;99.90;;;;;;4987365;28;20213;-75
2022/09/27 13:19:00;;;;;;;0.10;0.10;;;11.30;99.90;;;;;;4972830;28;20650;-75
2022/09/27 13:21:55;;;;;;;0.00;0.00;;;11.40;99.90;;;;;;4953515;28;20205;-76
2022/09/27 13:24:50;;;;;;;0.00;0.00;;;11.80;99.90;;;;;;4951329;28;20260;-75
2022/09/27 13:27:41;;;;;;;0.10;0.10;;;12.00;99.90;;;;;;4972510;28;20205;-75
2022/09/27 13:30:47;;;;;;;0.10;0.10;;;12.30;99.90;;;;;;4984399;28;20695;-75
2022/09/27 13:33:47;;;;;;;0.10;0.10;;;12.60;99.90;;;;;;4972744;28;20248;-75
2022/09/27 13:36:31;;;;;;;0.00;0.00;;;12.80;99.90;;;;;;4955876;28;20213;-75
2022/09/27 13:39:21;;;;;;;0.00;0.00;;;13.00;99.90;;;;;;4968174;28;20231;-75
2022/09/27 13:42:20;;;;;;;0.00;0.00;;;12.90;99.90;;;;;;4971966;28;20231;-75
2022/09/27 13:45:12;;;;;;;0.00;0.00;;;13.00;99.90;;;;;;4973946;28;20291;-75
2022/09/27 13:47:45;;;;;;;0.10;0.10;;;12.70;99.90;;;;;;4970897;28;20676;-75
2022/09/27 13:50:27;;;;;;;0.00;0.00;;;12.60;99.90;;;;;;4969175;28;20703;-75
2022/09/27 13:53:07;;;;;;;0.10;0.10;;;12.60;99.90;;;;;;4982561;28;20200;-75
2022/09/27 13:55:45;;;;;;;0.00;0.00;;;12.60;99.90;;;;;;4970048;28;20228;-75
2022/09/27 13:58:33;;;;;;;0.00;0.00;;;12.50;99.90;;;;;;4969647;28;20631;-75
2022/09/27 14:01:11;;;;;;;0.00;0.00;;;12.60;99.90;;;;;;4974267;28;20209;-75
2022/09/27 14:03:44;;;;;;;0.00;0.00;;;12.60;99.90;;;;;;4983939;28;20246;-75
2022/09/27 14:06:19;;;;;;;0.00;0.00;;;12.50;99.90;;;;;;4976457;28;20204;-75
2022/09/27 14:08:51;;;;;;;0.00;0.00;;;12.50;99.90;;;;;;4958904;28;20208;-75